Time;durP1;ratioP1;P1;durP2;ratioP2;P2;SDS_P1;SDS_P2;PMS_P1;PMS_P2;Temp;Humidity;BMP_temperature;BMP_pressure;BME280_temperature;BME280_humidity;BME280_pressure;Samples;Min_cycle;Max_cycle;Signal;HPM_P1;HPM_P2
2022/12/06 00:00:56;;;;;;;190.80;86.82;;;3.20;99.90;;;;;;5076041;28;20023;-81
2022/12/06 00:03:22;;;;;;;206.63;94.38;;;3.20;99.90;;;;;;5075826;28;20379;-83
2022/12/06 00:05:47;;;;;;;196.40;89.80;;;3.20;99.90;;;;;;5075848;28;20032;-81
2022/12/06 00:08:13;;;;;;;183.77;82.63;;;3.20;99.90;;;;;;5074544;28;20035;-81
2022/12/06 00:10:39;;;;;;;171.82;78.25;;;3.20;99.90;;;;;;5074743;28;20024;-82
2022/12/06 00:13:04;;;;;;;165.95;76.07;;;3.20;99.90;;;;;;5074416;28;20021;-81
2022/12/06 00:15:35;;;;;;;142.68;68.65;;;3.20;99.90;;;;;;5075585;28;20036;-81
2022/12/06 00:18:00;;;;;;;129.55;58.47;;;3.20;99.90;;;;;;5075921;28;20389;-83
2022/12/06 00:20:26;;;;;;;105.80;52.80;;;3.20;99.90;;;;;;5074560;28;20020;-83
2022/12/06 00:22:51;;;;;;;114.55;50.83;;;3.20;99.90;;;;;;5075666;28;20023;-81
2022/12/06 00:25:17;;;;;;;114.38;52.03;;;3.20;99.90;;;;;;5074327;28;20552;-83
2022/12/06 00:27:42;;;;;;;124.72;55.55;;;3.20;99.90;;;;;;5074265;28;20024;-83
2022/12/06 00:30:08;;;;;;;116.57;55.50;;;3.20;99.90;;;;;;5075479;28;20020;-84
2022/12/06 00:32:34;;;;;;;125.53;59.97;;;3.20;99.90;;;;;;5075567;28;20017;-81
2022/12/06 00:34:59;;;;;;;125.43;60.97;;;3.20;99.90;;;;;;5075373;28;20471;-82
2022/12/06 00:37:25;;;;;;;112.68;51.90;;;3.20;99.90;;;;;;5073370;28;20021;-81
2022/12/06 00:39:51;;;;;;;100.90;48.95;;;3.10;99.90;;;;;;5073944;28;20086;-82
2022/12/06 00:42:16;;;;;;;107.78;46.20;;;3.10;99.90;;;;;;5073964;28;20055;-82
2022/12/06 00:44:42;;;;;;;137.68;59.05;;;3.10;99.90;;;;;;5073558;28;20087;-82
2022/12/06 00:47:07;;;;;;;156.85;72.50;;;3.10;99.90;;;;;;5055225;28;20024;-83
2022/12/06 00:49:33;;;;;;;170.57;77.57;;;3.10;99.90;;;;;;5053736;28;20032;-81
2022/12/06 00:51:58;;;;;;;181.50;83.13;;;3.10;99.90;;;;;;5053890;28;20025;-82
2022/12/06 00:54:24;;;;;;;181.40;88.43;;;3.10;99.90;;;;;;5053597;28;20055;-82
2022/12/06 00:56:49;;;;;;;175.05;84.07;;;3.00;99.90;;;;;;5067697;28;20055;-82
2022/12/06 00:59:15;;;;;;;175.95;83.63;;;3.00;99.90;;;;;;5074901;28;20055;-82
2022/12/06 01:01:41;;;;;;;172.20;83.20;;;3.00;99.90;;;;;;5073575;28;20029;-81
2022/12/06 01:04:08;;;;;;;191.52;87.25;;;3.00;99.90;;;;;;5074433;28;20079;-81
2022/12/06 01:06:35;;;;;;;198.07;92.32;;;3.00;99.90;;;;;;5073353;28;20052;-82
2022/12/06 01:09:04;;;;;;;179.45;83.15;;;3.00;99.90;;;;;;5073436;28;20021;-82
2022/12/06 01:11:30;;;;;;;179.43;82.57;;;2.90;99.90;;;;;;5074524;28;20025;-82
2022/12/06 01:13:56;;;;;;;198.48;89.93;;;2.90;99.90;;;;;;5073313;28;20047;-81
2022/12/06 01:16:26;;;;;;;194.63;86.07;;;2.90;99.90;;;;;;5073196;28;20021;-81
2022/12/06 01:18:54;;;;;;;177.50;85.38;;;2.90;99.90;;;;;;5073400;28;20021;-81
2022/12/06 01:21:21;;;;;;;166.65;77.50;;;2.90;99.90;;;;;;5073152;28;20021;-81
2022/12/06 01:23:47;;;;;;;172.80;78.65;;;2.90;99.90;;;;;;5073049;28;20127;-82
2022/12/06 01:26:21;;;;;;;181.98;79.68;;;2.80;99.90;;;;;;5074301;28;20048;-81
2022/12/06 01:28:47;;;;;;;169.88;81.13;;;2.90;99.90;;;;;;5073118;28;20036;-82
2022/12/06 01:31:14;;;;;;;167.13;76.53;;;2.90;99.90;;;;;;5072929;28;20021;-81
2022/12/06 01:33:40;;;;;;;172.38;77.70;;;2.90;99.90;;;;;;5074222;28;20055;-82
2022/12/06 01:36:06;;;;;;;163.70;73.32;;;2.90;99.90;;;;;;5074076;28;20021;-82
2022/12/06 01:38:32;;;;;;;155.43;72.95;;;2.90;99.90;;;;;;5072822;28;20072;-82
2022/12/06 01:40:58;;;;;;;157.43;75.15;;;2.90;99.90;;;;;;5072659;28;20486;-82
2022/12/06 01:43:50;;;;;;;152.88;69.03;;;2.90;99.90;;;;;;5072685;28;20035;-82
2022/12/06 01:46:54;;;;;;;140.80;66.30;;;2.90;99.90;;;;;;5060870;28;20552;-82
2022/12/06 01:49:25;;;;;;;140.98;64.85;;;2.80;99.90;;;;;;5031005;28;20040;-83
2022/12/06 01:51:57;;;;;;;130.65;65.03;;;2.80;99.90;;;;;;5031639;28;20030;-83
2022/12/06 01:54:23;;;;;;;129.15;63.53;;;2.80;99.90;;;;;;5032961;28;20033;-82
2022/12/06 01:56:51;;;;;;;145.95;66.57;;;2.80;99.90;;;;;;5062181;28;20033;-81
2022/12/06 01:59:17;;;;;;;146.77;70.95;;;2.80;99.90;;;;;;5073717;28;20028;-81
2022/12/06 02:01:45;;;;;;;152.35;71.63;;;2.80;99.90;;;;;;5073553;28;20028;-81
2022/12/06 02:04:12;;;;;;;140.68;64.22;;;2.80;99.90;;;;;;5072248;28;20132;-81
2022/12/06 02:06:39;;;;;;;143.98;65.35;;;2.80;99.90;;;;;;5073436;28;20032;-81
2022/12/06 02:09:07;;;;;;;134.55;65.85;;;2.80;99.90;;;;;;5072304;28;20043;-81
2022/12/06 02:11:33;;;;;;;123.80;60.65;;;2.80;99.90;;;;;;5072000;28;20435;-81
2022/12/06 02:14:00;;;;;;;124.15;60.20;;;2.80;99.90;;;;;;5072241;28;20056;-81
2022/12/06 02:16:37;;;;;;;135.43;63.80;;;2.80;99.90;;;;;;5072176;28;20040;-81
2022/12/06 02:19:27;;;;;;;125.00;59.63;;;2.80;99.90;;;;;;5072252;28;20060;-81
2022/12/06 02:21:58;;;;;;;128.77;63.20;;;2.70;99.90;;;;;;5072093;28;20024;-83
2022/12/06 02:24:46;;;;;;;138.35;64.07;;;2.70;99.90;;;;;;5072094;28;20037;-83
2022/12/06 02:27:31;;;;;;;130.98;61.05;;;2.70;99.90;;;;;;5067103;28;20516;-83
2022/12/06 02:30:27;;;;;;;134.45;59.88;;;2.60;99.90;;;;;;5071983;28;20021;-81
2022/12/06 02:33:03;;;;;;;123.05;57.90;;;2.70;99.90;;;;;;5072010;28;20060;-80
2022/12/06 02:35:58;;;;;;;113.78;53.58;;;2.70;99.90;;;;;;5073094;28;20034;-82
2022/12/06 02:38:47;;;;;;;102.05;47.33;;;2.70;99.90;;;;;;5071448;28;20375;-80
2022/12/06 02:41:38;;;;;;;100.93;51.10;;;2.70;99.90;;;;;;5071804;28;20470;-83
2022/12/06 02:44:07;;;;;;;89.05;44.40;;;2.70;99.90;;;;;;5071699;28;20080;-83
2022/12/06 02:46:36;;;;;;;99.00;47.67;;;2.70;99.90;;;;;;5057147;28;20163;-81
2022/12/06 02:49:04;;;;;;;96.63;46.50;;;2.70;99.90;;;;;;5051873;28;20021;-82
2022/12/06 02:51:33;;;;;;;99.20;49.10;;;2.70;99.90;;;;;;5051264;28;20047;-82
2022/12/06 02:54:01;;;;;;;98.05;47.55;;;2.70;99.90;;;;;;5051758;28;20116;-80
2022/12/06 02:56:28;;;;;;;95.60;44.08;;;2.70;99.90;;;;;;5051540;28;20021;-83
2022/12/06 02:58:53;;;;;;;96.50;44.78;;;2.70;99.90;;;;;;5053024;28;20051;-83
2022/12/06 03:01:36;;;;;;;85.90;41.95;;;2.70;99.90;;;;;;5055652;28;20394;-80
2022/12/06 03:04:30;;;;;;;84.05;38.03;;;2.70;99.90;;;;;;5057064;28;20029;-80
2022/12/06 03:07:33;;;;;;;74.07;35.45;;;2.70;99.90;;;;;;5055743;28;20515;-82
2022/12/06 03:10:21;;;;;;;71.53;34.17;;;2.70;99.90;;;;;;5055713;28;20047;-80
2022/12/06 03:13:03;;;;;;;67.15;30.85;;;2.70;99.90;;;;;;5055569;28;20031;-82
2022/12/06 03:15:39;;;;;;;68.18;32.25;;;2.70;99.90;;;;;;5055675;28;20037;-82
2022/12/06 03:18:17;;;;;;;60.92;28.45;;;2.80;99.90;;;;;;5055566;28;20534;-83
2022/12/06 03:20:57;;;;;;;57.72;26.40;;;2.80;99.90;;;;;;5055493;28;20028;-81
2022/12/06 03:23:28;;;;;;;58.83;27.73;;;2.80;99.90;;;;;;5056832;28;20423;-81
2022/12/06 03:25:58;;;;;;;66.18;30.30;;;2.80;99.90;;;;;;5055502;28;20017;-81
2022/12/06 03:28:24;;;;;;;68.65;33.42;;;2.80;99.90;;;;;;5056739;28;20052;-82
2022/12/06 03:30:52;;;;;;;73.80;35.90;;;2.80;99.90;;;;;;5055212;28;20036;-82
2022/12/06 03:33:22;;;;;;;70.57;32.67;;;2.90;99.90;;;;;;5055323;28;20056;-82
2022/12/06 03:35:50;;;;;;;70.38;34.05;;;2.80;99.90;;;;;;5056481;28;20021;-81
2022/12/06 03:38:22;;;;;;;60.78;32.00;;;2.80;99.90;;;;;;5056516;28;20025;-81
2022/12/06 03:40:51;;;;;;;69.87;33.13;;;2.80;99.90;;;;;;5056438;28;20032;-81
2022/12/06 03:43:17;;;;;;;60.58;31.83;;;2.80;99.90;;;;;;5056352;28;20364;-83
2022/12/06 03:46:06;;;;;;;58.67;29.05;;;2.80;99.90;;;;;;5055063;28;20052;-83
2022/12/06 03:48:37;;;;;;;60.78;27.20;;;2.80;99.90;;;;;;5055040;28;20128;-82
2022/12/06 03:51:06;;;;;;;63.00;29.45;;;2.80;99.90;;;;;;5056160;28;20047;-80
2022/12/06 03:53:32;;;;;;;62.88;29.60;;;2.80;99.90;;;;;;5054844;28;20024;-83
2022/12/06 03:55:58;;;;;;;60.88;29.33;;;2.80;99.90;;;;;;5056060;28;20017;-80
2022/12/06 03:58:24;;;;;;;60.70;29.38;;;2.80;99.90;;;;;;5054805;28;20032;-82
2022/12/06 04:00:50;;;;;;;57.70;27.48;;;2.80;99.90;;;;;;5054864;28;20021;-81
2022/12/06 04:03:16;;;;;;;51.78;26.60;;;2.80;99.90;;;;;;5056044;28;20025;-81
2022/12/06 04:05:41;;;;;;;46.67;24.83;;;2.80;99.90;;;;;;5055947;28;20086;-80
2022/12/06 04:08:07;;;;;;;56.33;26.20;;;2.80;99.90;;;;;;5054615;28;20021;-82
2022/12/06 04:10:33;;;;;;;56.70;27.55;;;2.80;99.90;;;;;;5055978;28;20116;-81
2022/12/06 04:13:01;;;;;;;54.25;27.58;;;2.80;99.90;;;;;;5053259;28;20068;-82
2022/12/06 04:15:36;;;;;;;53.33;29.10;;;2.80;99.90;;;;;;5054505;28;20029;-82
2022/12/06 04:18:12;;;;;;;57.17;29.27;;;2.80;99.90;;;;;;5055742;28;20104;-82
2022/12/06 04:23:49;;;;;;;56.13;27.25;;;2.80;99.90;;;;;;5055620;28;20052;-82
2022/12/06 04:26:18;;;;;;;56.03;28.40;;;2.80;99.90;;;;;;5054440;28;20538;-82
2022/12/06 04:39:41;;;;;;;60.70;27.98;;;2.80;99.90;;;;;;5055337;28;20047;-81
2022/12/06 04:44:51;;;;;;;62.60;27.20;;;2.80;99.90;;;;;;5055090;28;20079;-81
2022/12/06 04:47:16;;;;;;;63.15;31.50;;;2.70;99.90;;;;;;5055240;28;20049;-82
2022/12/06 04:49:42;;;;;;;72.40;32.25;;;2.70;99.90;;;;;;5055149;28;20025;-82
2022/12/06 04:52:09;;;;;;;68.32;30.08;;;2.70;99.90;;;;;;5053887;28;20035;-81
2022/12/06 04:54:35;;;;;;;71.10;32.28;;;2.70;99.90;;;;;;5053684;28;20063;-83
2022/12/06 04:57:01;;;;;;;73.00;33.60;;;2.70;99.90;;;;;;5053788;28;20020;-81
2022/12/06 04:59:27;;;;;;;76.97;34.42;;;2.70;99.90;;;;;;5053534;28;20017;-81
2022/12/06 05:01:53;;;;;;;71.50;33.42;;;2.70;99.90;;;;;;5054955;28;20151;-81
2022/12/06 05:04:19;;;;;;;64.13;32.47;;;2.70;99.90;;;;;;5053485;28;20119;-82
2022/12/06 05:06:45;;;;;;;69.93;29.38;;;2.70;99.90;;;;;;5053469;28;20145;-80
2022/12/06 05:09:11;;;;;;;65.03;30.80;;;2.70;99.90;;;;;;5054534;28;20053;-80
2022/12/06 05:11:37;;;;;;;53.25;28.55;;;2.70;99.90;;;;;;5053396;28;20359;-82
2022/12/06 05:14:03;;;;;;;55.75;28.23;;;2.70;99.90;;;;;;5054601;28;20100;-82
2022/12/06 05:16:29;;;;;;;59.45;27.98;;;2.70;99.90;;;;;;5054735;28;20071;-82
2022/12/06 05:18:54;;;;;;;65.90;28.38;;;2.80;99.90;;;;;;5054536;28;20017;-80
2022/12/06 05:21:22;;;;;;;64.68;29.70;;;2.70;99.90;;;;;;5053309;28;20079;-80
2022/12/06 05:23:48;;;;;;;55.28;26.58;;;2.80;99.90;;;;;;5052764;28;20043;-81
2022/12/06 05:26:17;;;;;;;61.63;26.50;;;2.70;99.90;;;;;;5053210;28;20025;-80
2022/12/06 05:28:43;;;;;;;53.60;25.05;;;2.80;99.90;;;;;;5052934;28;20017;-81
2022/12/06 05:31:10;;;;;;;53.42;26.75;;;2.80;99.90;;;;;;5054216;28;20483;-82
2022/12/06 05:33:36;;;;;;;61.25;28.63;;;2.80;99.90;;;;;;5054211;28;20028;-83
2022/12/06 05:36:11;;;;;;;57.58;27.10;;;2.80;99.90;;;;;;5053071;28;20120;-81
2022/12/06 05:38:36;;;;;;;67.78;28.70;;;2.80;99.90;;;;;;5052967;28;20083;-83
2022/12/06 05:41:03;;;;;;;61.42;28.50;;;2.80;99.90;;;;;;5054099;28;20029;-81
2022/12/06 05:43:29;;;;;;;53.78;25.73;;;2.90;99.90;;;;;;5052578;28;20051;-82
2022/12/06 05:45:55;;;;;;;50.15;26.30;;;2.90;99.90;;;;;;5054194;28;20049;-83
2022/12/06 05:48:21;;;;;;;43.63;22.92;;;2.90;99.90;;;;;;5053988;28;20063;-83
2022/12/06 05:50:47;;;;;;;57.63;26.88;;;2.90;99.90;;;;;;5052608;28;20029;-80
2022/12/06 05:53:14;;;;;;;48.28;22.58;;;2.90;99.90;;;;;;5052591;28;20021;-82
2022/12/06 05:55:40;;;;;;;48.53;22.73;;;2.80;99.90;;;;;;5054127;28;20378;-82
2022/12/06 05:58:05;;;;;;;55.50;24.58;;;2.80;99.90;;;;;;5052588;28;20031;-82
2022/12/06 06:00:31;;;;;;;60.92;25.67;;;2.90;99.90;;;;;;5052465;28;20025;-82
2022/12/06 06:02:57;;;;;;;61.50;28.38;;;2.80;99.90;;;;;;5053812;28;20025;-82
2022/12/06 06:05:22;;;;;;;56.03;27.73;;;2.80;99.90;;;;;;5052252;28;20045;-80
2022/12/06 06:07:48;;;;;;;53.08;25.88;;;2.80;99.90;;;;;;5052357;28;20021;-80
2022/12/06 06:10:15;;;;;;;43.72;22.80;;;2.80;99.90;;;;;;5052279;28;20028;-80
2022/12/06 06:12:41;;;;;;;49.67;24.48;;;2.80;99.90;;;;;;5052124;28;20029;-80
2022/12/06 06:15:07;;;;;;;45.30;24.17;;;2.80;99.90;;;;;;5053685;28;20045;-82
2022/12/06 06:17:36;;;;;;;47.35;24.65;;;2.80;99.90;;;;;;5053556;28;20103;-82
2022/12/06 06:20:05;;;;;;;52.60;24.20;;;2.90;99.90;;;;;;5052123;28;20078;-81
2022/12/06 06:22:35;;;;;;;45.88;22.75;;;2.90;99.90;;;;;;5052185;28;20021;-80
2022/12/06 06:25:01;;;;;;;51.40;24.55;;;2.80;99.90;;;;;;5051991;28;20029;-82
2022/12/06 06:27:31;;;;;;;44.70;23.00;;;2.90;99.90;;;;;;5052083;28;20367;-82
2022/12/06 06:29:56;;;;;;;45.53;23.48;;;2.90;99.90;;;;;;5053372;28;20394;-82
2022/12/06 06:32:22;;;;;;;42.00;23.13;;;2.90;99.90;;;;;;5060454;28;20024;-82
2022/12/06 06:34:47;;;;;;;51.85;23.98;;;2.90;99.90;;;;;;5042944;28;20537;-80
2022/12/06 06:37:13;;;;;;;208.70;64.93;;;2.90;99.90;;;;;;5035118;28;20026;-82
2022/12/06 06:39:38;;;;;;;76.35;33.30;;;2.90;99.90;;;;;;5071671;28;20024;-80
2022/12/06 06:42:04;;;;;;;57.35;27.17;;;2.90;99.90;;;;;;5044942;28;20032;-81
2022/12/06 06:44:30;;;;;;;69.05;29.00;;;2.90;99.90;;;;;;5063236;28;20508;-80
2022/12/06 06:46:55;;;;;;;109.97;38.67;;;2.90;99.90;;;;;;5063426;28;20035;-81
2022/12/06 06:49:21;;;;;;;52.58;27.75;;;2.90;99.90;;;;;;5069020;28;20031;-80
2022/12/06 06:51:46;;;;;;;77.90;32.65;;;2.90;99.90;;;;;;5067440;28;20025;-80
2022/12/06 06:54:12;;;;;;;139.02;49.72;;;2.90;99.90;;;;;;5059631;28;20021;-79
2022/12/06 06:56:38;;;;;;;116.10;52.78;;;2.90;99.90;;;;;;5058455;28;20032;-83
2022/12/06 06:59:04;;;;;;;96.28;52.28;;;3.00;99.90;;;;;;5071485;28;20466;-80
2022/12/06 07:01:29;;;;;;;58.13;34.97;;;2.90;99.90;;;;;;5045160;28;21310;-80
2022/12/06 07:03:55;;;;;;;77.38;43.53;;;2.90;99.90;;;;;;5043330;28;20028;-80
2022/12/06 07:06:21;;;;;;;55.53;28.88;;;2.90;99.90;;;;;;5047233;28;20018;-81
2022/12/06 07:08:46;;;;;;;45.25;24.05;;;2.90;99.90;;;;;;5046103;28;20017;-80
2022/12/06 07:11:13;;;;;;;42.90;23.00;;;2.90;99.90;;;;;;5041405;28;20132;-80
2022/12/06 07:13:40;;;;;;;39.20;22.17;;;2.90;99.90;;;;;;5045525;28;20394;-83
2022/12/06 07:16:11;;;;;;;44.80;24.23;;;3.00;99.90;;;;;;5062009;28;20031;-82
2022/12/06 07:18:39;;;;;;;39.22;21.73;;;3.00;99.90;;;;;;5042877;28;20028;-80
2022/12/06 07:21:07;;;;;;;37.20;21.90;;;3.00;99.90;;;;;;5041634;28;20035;-80
2022/12/06 07:23:34;;;;;;;38.22;21.77;;;3.00;99.90;;;;;;5043971;28;20041;-80
2022/12/06 07:26:06;;;;;;;40.78;21.08;;;3.00;99.90;;;;;;5039116;28;20156;-79
2022/12/06 07:28:36;;;;;;;35.38;20.83;;;3.10;99.90;;;;;;5043359;28;20020;-79
2022/12/06 07:31:09;;;;;;;34.58;20.75;;;3.00;99.90;;;;;;5045628;28;20017;-79
2022/12/06 07:33:36;;;;;;;30.88;18.08;;;3.10;99.90;;;;;;5043769;28;20040;-80
2022/12/06 07:36:01;;;;;;;35.08;19.85;;;3.10;99.90;;;;;;5043619;28;20032;-80
2022/12/06 07:38:27;;;;;;;36.00;21.35;;;3.10;99.90;;;;;;5040725;28;20028;-80
2022/12/06 07:40:53;;;;;;;34.13;20.85;;;3.10;99.90;;;;;;5043444;28;20029;-79
2022/12/06 07:46:02;;;;;;;33.15;18.95;;;3.10;99.90;;;;;;5071569;28;20060;-80
2022/12/06 07:48:28;;;;;;;36.13;19.45;;;3.20;99.90;;;;;;5053734;28;20471;-80
2022/12/06 07:50:53;;;;;;;36.97;19.60;;;3.20;99.90;;;;;;5045509;28;20021;-80
2022/12/06 07:53:19;;;;;;;34.33;22.15;;;3.20;99.90;;;;;;5061243;28;20067;-80
2022/12/06 07:55:44;;;;;;;37.90;23.00;;;3.20;99.90;;;;;;5066128;28;20063;-80
2022/12/06 07:58:10;;;;;;;40.08;20.73;;;3.20;99.90;;;;;;5074777;28;20043;-82
2022/12/06 08:00:36;;;;;;;42.85;22.92;;;3.20;99.90;;;;;;5075839;28;20412;-79
2022/12/06 08:03:06;;;;;;;39.28;22.52;;;3.30;99.90;;;;;;5054291;28;20017;-81
2022/12/06 08:05:32;;;;;;;38.95;23.13;;;3.30;99.90;;;;;;5045384;28;20046;-80
2022/12/06 08:07:57;;;;;;;40.10;21.60;;;3.30;99.90;;;;;;5050821;28;20109;-81
2022/12/06 08:10:23;;;;;;;38.10;22.00;;;3.30;99.90;;;;;;5050993;28;20032;-81
2022/12/06 08:12:48;;;;;;;56.38;32.50;;;3.30;99.90;;;;;;5055700;28;20025;-79
2022/12/06 08:15:14;;;;;;;56.95;30.85;;;3.40;99.90;;;;;;5053766;28;20382;-81
2022/12/06 08:17:40;;;;;;;58.90;34.17;;;3.40;99.90;;;;;;5045064;28;20067;-80
2022/12/06 08:20:07;;;;;;;60.75;33.25;;;3.40;99.90;;;;;;5033898;28;20020;-82
2022/12/06 08:22:34;;;;;;;78.35;42.30;;;3.40;99.90;;;;;;5034302;28;20059;-81
2022/12/06 08:24:59;;;;;;;68.95;35.95;;;3.50;99.90;;;;;;5032403;28;20033;-81
2022/12/06 08:27:25;;;;;;;50.47;28.77;;;3.50;99.90;;;;;;5031050;28;20029;-82
2022/12/06 08:29:51;;;;;;;49.05;28.52;;;3.50;99.90;;;;;;5031224;28;20036;-80
2022/12/06 08:32:17;;;;;;;49.47;29.92;;;3.50;99.90;;;;;;5032984;28;20395;-81
2022/12/06 08:34:43;;;;;;;57.17;32.50;;;3.50;99.90;;;;;;5043115;28;20017;-80
2022/12/06 08:37:09;;;;;;;52.60;30.75;;;3.60;99.90;;;;;;5053028;28;20482;-82
2022/12/06 08:39:34;;;;;;;57.80;31.10;;;3.60;99.90;;;;;;5041042;28;20029;-83
2022/12/06 08:42:02;;;;;;;48.70;27.95;;;3.70;99.90;;;;;;5033439;28;20486;-83
2022/12/06 08:44:30;;;;;;;53.08;31.15;;;3.70;99.90;;;;;;5033809;28;20478;-81
2022/12/06 08:46:57;;;;;;;49.90;29.35;;;3.70;99.90;;;;;;5043954;28;20020;-82
2022/12/06 08:49:23;;;;;;;50.42;30.55;;;3.70;99.90;;;;;;5053991;28;20021;-81
2022/12/06 08:51:49;;;;;;;55.85;30.50;;;3.80;99.90;;;;;;5049005;28;20517;-83
2022/12/06 08:54:17;;;;;;;59.55;32.85;;;3.80;99.90;;;;;;5042961;28;20029;-83
2022/12/06 08:56:43;;;;;;;60.38;31.70;;;3.80;99.90;;;;;;5069781;28;20528;-80
2022/12/06 08:59:09;;;;;;;49.60;28.15;;;3.80;99.90;;;;;;5073228;28;20016;-81
2022/12/06 09:01:34;;;;;;;59.03;33.30;;;3.80;99.90;;;;;;5073617;28;20020;-82
2022/12/06 09:04:05;;;;;;;59.20;32.85;;;3.90;99.90;;;;;;5073675;28;20074;-82
2022/12/06 09:06:31;;;;;;;81.00;40.35;;;3.90;99.90;;;;;;5074591;28;20024;-83
2022/12/06 09:08:57;;;;;;;70.65;37.38;;;3.90;99.90;;;;;;5073395;28;20016;-83
2022/12/06 09:11:24;;;;;;;74.50;38.58;;;3.90;99.90;;;;;;5074589;28;20032;-80
2022/12/06 09:13:50;;;;;;;72.97;40.55;;;3.90;99.90;;;;;;5073353;28;20013;-81
2022/12/06 09:16:18;;;;;;;80.15;40.22;;;4.00;99.90;;;;;;5073276;28;20034;-83
2022/12/06 09:18:45;;;;;;;77.90;39.45;;;4.00;99.90;;;;;;5073400;28;20028;-80
2022/12/06 09:21:14;;;;;;;80.85;42.58;;;4.00;99.90;;;;;;5073138;28;20035;-80
2022/12/06 09:23:40;;;;;;;82.50;42.38;;;4.10;99.90;;;;;;5074477;28;20074;-83
2022/12/06 09:26:06;;;;;;;89.15;46.17;;;4.10;99.90;;;;;;5074374;28;20024;-83
2022/12/06 09:28:35;;;;;;;81.90;43.95;;;4.10;99.90;;;;;;5073162;28;20024;-81
2022/12/06 09:31:02;;;;;;;91.53;47.90;;;4.10;99.90;;;;;;5066947;28;20021;-83
2022/12/06 09:33:28;;;;;;;82.80;44.60;;;4.10;99.90;;;;;;5051456;28;20485;-82
2022/12/06 09:35:54;;;;;;;64.65;36.15;;;4.10;99.90;;;;;;5053132;28;20031;-80
2022/12/06 09:38:22;;;;;;;60.97;32.92;;;4.10;99.90;;;;;;5052980;28;20044;-82
2022/12/06 09:41:12;;;;;;;67.93;36.17;;;4.10;99.90;;;;;;5054187;28;20035;-82
2022/12/06 09:44:06;;;;;;;57.05;31.75;;;4.10;99.90;;;;;;5052534;28;20082;-81
2022/12/06 09:46:52;;;;;;;57.38;30.77;;;4.20;99.90;;;;;;5052669;28;20023;-80
2022/12/06 09:49:41;;;;;;;57.38;32.28;;;4.20;99.90;;;;;;5052927;28;20025;-78
2022/12/06 09:52:27;;;;;;;67.78;39.15;;;4.20;99.90;;;;;;5047763;28;20048;-80
2022/12/06 09:55:29;;;;;;;78.72;43.58;;;4.20;99.90;;;;;;5053989;28;20036;-80
2022/12/06 09:58:19;;;;;;;96.63;49.78;;;4.20;99.90;;;;;;5052414;28;20498;-80
2022/12/06 10:01:06;;;;;;;107.95;53.50;;;4.20;99.90;;;;;;5052401;28;20076;-83
2022/12/06 10:03:56;;;;;;;82.30;42.90;;;4.30;99.90;;;;;;5052302;28;20029;-80
2022/12/06 10:06:26;;;;;;;63.13;33.65;;;4.30;99.90;;;;;;5052579;28;20021;-80
2022/12/06 10:09:10;;;;;;;59.97;33.17;;;4.30;99.90;;;;;;5053636;28;20025;-82
2022/12/06 10:11:55;;;;;;;72.05;40.05;;;4.30;99.90;;;;;;5053145;28;20040;-80
2022/12/06 10:14:44;;;;;;;87.60;47.03;;;4.30;99.90;;;;;;5052232;28;20103;-79
2022/12/06 10:17:31;;;;;;;63.97;34.17;;;4.30;99.90;;;;;;5052244;28;20079;-79
2022/12/06 10:20:09;;;;;;;54.78;30.55;;;4.30;99.90;;;;;;5053349;28;20021;-80
2022/12/06 10:23:04;;;;;;;60.88;32.58;;;4.40;99.90;;;;;;5052149;28;20032;-80
2022/12/06 10:25:38;;;;;;;74.13;37.50;;;4.40;99.90;;;;;;5051976;28;20041;-80
2022/12/06 10:28:22;;;;;;;74.97;37.53;;;4.40;99.90;;;;;;5052072;28;20079;-82
2022/12/06 10:30:58;;;;;;;59.92;32.65;;;4.40;99.90;;;;;;5052140;28;20023;-78
2022/12/06 10:33:48;;;;;;;59.15;30.70;;;4.40;99.90;;;;;;5051972;28;20033;-82
2022/12/06 10:36:24;;;;;;;52.67;27.08;;;4.40;99.90;;;;;;5052533;28;20029;-80
2022/12/06 10:38:58;;;;;;;53.90;29.30;;;4.40;99.90;;;;;;5052860;28;20060;-79
2022/12/06 10:41:38;;;;;;;47.28;26.15;;;4.40;99.90;;;;;;5048892;28;20074;-80
2022/12/06 10:44:26;;;;;;;47.22;26.40;;;4.40;99.90;;;;;;5041957;28;20100;-79
2022/12/06 10:47:11;;;;;;;44.00;25.48;;;4.40;99.90;;;;;;5045159;28;20033;-79
2022/12/06 10:49:49;;;;;;;45.10;23.52;;;4.40;99.90;;;;;;5054040;28;20052;-79
2022/12/06 10:52:42;;;;;;;48.15;26.10;;;4.40;99.90;;;;;;5053027;28;20017;-84
2022/12/06 10:55:18;;;;;;;47.60;22.92;;;4.30;99.90;;;;;;5051935;28;20052;-79
2022/12/06 10:57:53;;;;;;;39.95;21.67;;;4.40;99.90;;;;;;5051776;28;20029;-83
2022/12/06 11:00:24;;;;;;;39.42;22.75;;;4.30;99.90;;;;;;5047505;28;20032;-83
2022/12/06 11:03:07;;;;;;;39.45;23.23;;;4.30;99.90;;;;;;5046754;28;20031;-83
2022/12/06 11:05:45;;;;;;;;;;;4.30;99.90;;;;;;5051285;28;20525;-83
2022/12/06 11:08:13;;;;;;;37.75;20.27;;;4.30;99.90;;;;;;5052168;28;19905;-83
2022/12/06 11:10:42;;;;;;;32.67;19.83;;;4.30;99.90;;;;;;5052152;28;20364;-83
2022/12/06 11:13:42;;;;;;;33.95;20.75;;;4.20;99.90;;;;;;5050813;28;20127;-83
2022/12/06 11:16:22;;;;;;;43.15;21.50;;;4.20;99.90;;;;;;5050676;28;20095;-83
2022/12/06 11:18:49;;;;;;;36.85;19.55;;;4.20;99.90;;;;;;5050792;28;20033;-83
2022/12/06 11:21:33;;;;;;;36.13;21.17;;;4.10;99.90;;;;;;5051955;28;20029;-82
2022/12/06 11:24:07;;;;;;;33.40;19.58;;;4.20;99.90;;;;;;5054811;28;20124;-82
2022/12/06 11:26:56;;;;;;;35.90;20.77;;;4.10;99.90;;;;;;5053837;28;20078;-82
2022/12/06 11:29:21;;;;;;;46.03;22.00;;;4.10;99.90;;;;;;5053325;28;20017;-83
2022/12/06 11:31:54;;;;;;;37.50;21.73;;;4.10;99.90;;;;;;5055105;28;20028;-82
2022/12/06 11:34:26;;;;;;;227.77;88.95;;;4.10;99.90;;;;;;5034466;28;20071;-79
2022/12/06 11:36:54;;;;;;;87.15;42.97;;;4.10;99.90;;;;;;5034241;28;20368;-82
2022/12/06 11:39:20;;;;;;;139.95;60.08;;;4.00;99.90;;;;;;5035705;28;20364;-82
2022/12/06 11:41:50;;;;;;;189.02;76.13;;;4.10;99.90;;;;;;5035491;28;20021;-81
2022/12/06 11:44:20;;;;;;;116.38;50.22;;;4.10;99.90;;;;;;5049807;28;20122;-83
2022/12/06 11:46:52;;;;;;;77.32;31.50;;;4.10;99.90;;;;;;5055344;28;20024;-83
2022/12/06 11:49:24;;;;;;;61.03;30.00;;;4.10;99.90;;;;;;5055380;28;20386;-84
2022/12/06 11:51:52;;;;;;;89.82;42.08;;;4.10;99.90;;;;;;5055573;28;20033;-82
2022/12/06 11:54:32;;;;;;;47.03;24.40;;;4.00;99.90;;;;;;5052770;28;20028;-83
2022/12/06 11:57:10;;;;;;;43.47;22.90;;;4.00;99.90;;;;;;5073283;28;20035;-78
2022/12/06 11:59:35;;;;;;;41.75;23.48;;;4.00;99.90;;;;;;5042951;28;20382;-79
2022/12/06 12:02:03;;;;;;;57.78;31.42;;;3.90;99.90;;;;;;5047264;28;20032;-79
2022/12/06 12:04:43;;;;;;;47.03;26.63;;;4.00;99.90;;;;;;5043841;28;20383;-79
2022/12/06 12:07:09;;;;;;;44.33;24.48;;;3.90;99.90;;;;;;5044860;28;20036;-78
2022/12/06 12:09:43;;;;;;;41.92;24.00;;;3.90;99.90;;;;;;5037960;28;20078;-79
2022/12/06 12:12:17;;;;;;;41.63;23.85;;;3.80;99.90;;;;;;5046194;28;20033;-80
2022/12/06 12:14:43;;;;;;;56.03;29.23;;;3.70;99.90;;;;;;5052847;28;20013;-81
2022/12/06 12:17:19;;;;;;;45.92;24.83;;;3.70;99.90;;;;;;5057596;28;20024;-80
2022/12/06 12:19:51;;;;;;;55.38;28.23;;;3.70;99.90;;;;;;5051664;28;20028;-80
2022/12/06 12:22:36;;;;;;;43.97;26.25;;;3.70;99.90;;;;;;5040679;28;20021;-80
2022/12/06 12:25:22;;;;;;;63.45;30.17;;;3.60;99.90;;;;;;5054313;28;20025;-80
2022/12/06 12:27:52;;;;;;;45.80;27.45;;;3.60;99.90;;;;;;5056421;28;20047;-80
2022/12/06 12:30:26;;;;;;;63.20;29.88;;;3.50;99.90;;;;;;5053565;28;20044;-79
2022/12/06 12:33:07;;;;;;;77.78;34.08;;;3.50;99.90;;;;;;5053786;28;20073;-79
2022/12/06 12:35:35;;;;;;;41.30;22.13;;;3.40;99.90;;;;;;5038546;28;20762;-78
2022/12/06 12:38:09;;;;;;;34.33;19.83;;;3.40;99.90;;;;;;5054729;28;20036;-82
2022/12/06 12:40:42;;;;;;;30.73;18.65;;;3.30;99.90;;;;;;5055426;28;20044;-82
2022/12/06 12:43:11;;;;;;;;;;;3.30;99.90;;;;;;5055548;28;20037;-83
2022/12/06 12:45:39;;;;;;;72.05;32.50;;;3.30;99.90;;;;;;5054372;28;19924;-82
2022/12/06 12:48:26;;;;;;;33.92;19.13;;;3.30;99.90;;;;;;5056669;28;20509;-82
2022/12/06 12:50:53;;;;;;;40.05;23.20;;;3.20;99.90;;;;;;5055902;28;20025;-82
2022/12/06 12:53:36;;;;;;;46.17;22.70;;;3.20;99.90;;;;;;5062533;28;20055;-81
2022/12/06 12:56:21;;;;;;;34.63;20.75;;;3.10;99.90;;;;;;5066516;28;20017;-81
2022/12/06 12:58:50;;;;;;;35.22;20.77;;;3.10;99.90;;;;;;5072749;28;20148;-82
2022/12/06 13:01:31;;;;;;;40.42;23.55;;;3.20;99.90;;;;;;5072121;28;20013;-83
2022/12/06 13:04:12;;;;;;;59.13;30.65;;;3.10;99.90;;;;;;5072804;28;20494;-83
2022/12/06 13:06:40;;;;;;;66.40;32.10;;;3.10;99.90;;;;;;5061897;28;20025;-83
2022/12/06 13:09:13;;;;;;;47.10;25.48;;;3.20;99.90;;;;;;5055995;28;20056;-83
2022/12/06 13:11:44;;;;;;;43.30;26.00;;;3.20;99.90;;;;;;5049276;28;20471;-84
2022/12/06 13:14:17;;;;;;;42.65;22.77;;;3.20;99.90;;;;;;5064841;28;20040;-82